createdAt,value
2017-09-20T00:01:57.746Z,75.30
2017-09-20T00:04:25.993Z,75.50
2017-09-20T00:06:53.507Z,75.30
2017-09-20T00:09:20.993Z,75.60
2017-09-20T00:11:48.501Z,75.60
2017-09-20T00:14:16.755Z,76.20
2017-09-20T00:16:44.260Z,76.20
2017-09-20T00:19:11.749Z,76.10
2017-09-20T00:21:39.263Z,76.10
2017-09-20T00:24:06.757Z,76.30
2017-09-20T00:26:34.265Z,76.40
2017-09-20T00:29:02.520Z,77.10
2017-09-20T00:31:30.029Z,77.10
2017-09-20T00:33:57.518Z,76.70
2017-09-20T00:36:25.290Z,76.80
2017-09-20T00:38:52.777Z,76.60
2017-09-20T00:41:21.057Z,76.90
2017-09-20T00:43:49.313Z,77.00
2017-09-20T00:46:16.821Z,76.90
2017-09-20T00:48:44.312Z,77.10
2017-09-20T00:51:11.829Z,76.80
2017-09-20T00:53:39.321Z,76.90
2017-09-20T00:56:06.834Z,76.90
2017-09-20T00:58:34.325Z,77.00
2017-09-20T01:01:01.829Z,77.20
2017-09-20T01:03:30.082Z,77.60
2017-09-20T01:05:57.606Z,77.50
2017-09-20T01:08:25.104Z,77.80
2017-09-20T01:10:52.613Z,77.70
2017-09-20T01:13:20.098Z,78.10
2017-09-20T01:15:47.610Z,78.30
2017-09-20T01:18:15.869Z,78.70
2017-09-20T01:20:55.894Z,79.60
2017-09-20T01:23:36.246Z,78.90
2017-09-20T01:26:04.534Z,79.00
2017-09-20T01:28:32.033Z,78.90
2017-09-20T01:31:00.310Z,79.30
2017-09-20T01:33:28.570Z,79.30
2017-09-20T01:35:56.844Z,79.40
2017-09-20T01:38:25.096Z,79.70
2017-09-20T01:40:52.611Z,79.30
2017-09-20T01:43:20.109Z,79.40
2017-09-20T01:45:47.626Z,79.50
2017-09-20T01:48:15.118Z,79.60
2017-09-20T01:50:42.629Z,79.60
2017-09-20T01:53:10.884Z,79.80
2017-09-20T01:55:38.398Z,79.80
2017-09-20T01:58:05.889Z,80.10
2017-09-20T02:00:33.397Z,80.30
2017-09-20T02:03:00.885Z,80.50
2017-09-20T02:05:28.398Z,80.50
2017-09-20T02:07:55.885Z,80.60
2017-09-20T02:10:23.393Z,80.60
2017-09-20T02:12:51.649Z,80.70
2017-09-20T02:15:19.159Z,80.60
2017-09-20T02:17:46.658Z,80.70
2017-09-20T02:20:14.174Z,80.90
2017-09-20T02:22:41.675Z,81.00
2017-09-20T02:25:09.194Z,81.00
2017-09-20T02:27:36.698Z,81.00
2017-09-20T02:30:04.211Z,81.00
2017-09-20T02:32:31.727Z,81.30
2017-09-20T02:35:00.019Z,80.50
2017-09-20T02:37:28.293Z,81.10
2017-09-20T02:39:56.587Z,81.20
2017-09-20T02:42:24.078Z,81.90
2017-09-20T02:44:51.590Z,81.00
2017-09-20T02:47:19.859Z,81.20
2017-09-20T02:49:48.146Z,81.40
2017-09-20T02:52:16.430Z,81.40
2017-09-20T02:54:43.947Z,81.30
2017-09-20T02:57:11.446Z,81.70
2017-09-20T02:59:38.966Z,82.20
2017-09-20T03:02:06.458Z,82.40
2017-09-20T03:04:34.742Z,82.50
2017-09-20T03:07:02.238Z,82.50
2017-09-20T03:09:29.749Z,83.10
2017-09-20T03:11:58.023Z,83.10
2017-09-20T03:14:26.307Z,83.30
2017-09-20T03:16:53.798Z,83.20
2017-09-20T03:19:21.318Z,83.30
2017-09-20T03:21:49.576Z,83.60
2017-09-20T03:24:17.101Z,83.60
2017-09-20T03:26:44.594Z,83.90
2017-09-20T03:29:12.114Z,83.90
2017-09-20T03:31:39.615Z,83.90
2017-09-20T03:34:07.899Z,83.70
2017-09-20T03:36:36.170Z,83.50
2017-09-20T03:39:04.460Z,83.30
2017-09-20T03:41:31.971Z,83.30
2017-09-20T03:43:59.485Z,83.00
2017-09-20T03:46:26.987Z,83.20
2017-09-20T03:48:54.515Z,82.80
2017-09-20T03:51:22.010Z,83.10
2017-09-20T03:53:49.534Z,83.00
2017-09-20T03:56:17.034Z,83.10
2017-09-20T03:58:44.534Z,83.10
2017-09-20T04:01:12.052Z,83.00
2017-09-20T04:03:39.550Z,82.80
2017-09-20T04:06:07.068Z,82.80
2017-09-20T04:08:34.570Z,82.90
2017-09-20T04:11:02.090Z,83.00
2017-09-20T04:13:29.587Z,83.10
2017-09-20T04:15:57.101Z,83.00
2017-09-20T04:18:24.590Z,83.00
2017-09-20T04:20:52.879Z,83.10
2017-09-20T04:23:20.380Z,83.10
2017-09-20T04:25:47.898Z,83.40
2017-09-20T04:28:15.398Z,83.30
2017-09-20T04:30:42.914Z,83.40
2017-09-20T04:33:10.414Z,83.60
2017-09-20T04:35:37.935Z,83.50
2017-09-20T04:38:05.430Z,83.50
2017-09-20T04:40:32.942Z,83.50
2017-09-20T04:43:00.440Z,83.60
2017-09-20T04:45:28.725Z,83.60
2017-09-20T04:47:56.219Z,83.60
2017-09-20T04:50:24.511Z,83.80
2017-09-20T04:52:52.023Z,83.80
2017-09-20T04:55:19.542Z,83.60
2017-09-20T04:57:47.038Z,83.40
2017-09-20T05:00:14.555Z,83.60
2017-09-20T05:02:42.050Z,83.70
2017-09-20T05:05:09.571Z,83.80
2017-09-20T05:07:37.061Z,83.80
2017-09-20T05:10:04.582Z,83.60
2017-09-20T05:12:32.077Z,83.60
2017-09-20T05:14:59.598Z,83.50
2017-09-20T05:17:27.095Z,83.30
2017-09-20T05:19:54.615Z,83.10
2017-09-20T05:22:22.105Z,83.10
2017-09-20T05:24:49.617Z,83.20
2017-09-20T05:27:17.874Z,83.60
2017-09-20T05:29:45.389Z,83.60
2017-09-20T05:32:12.885Z,83.60
2017-09-20T05:34:40.408Z,83.60
2017-09-20T05:37:07.902Z,83.40
2017-09-20T05:39:35.422Z,83.00
2017-09-20T05:42:02.921Z,82.90
2017-09-20T05:44:30.439Z,83.00
2017-09-20T05:46:57.935Z,83.10
2017-09-20T05:49:25.450Z,83.00
2017-09-20T05:51:52.947Z,82.80
2017-09-20T05:54:20.465Z,82.80
2017-09-20T05:56:47.962Z,83.40
2017-09-20T05:59:15.483Z,82.60
2017-09-20T06:01:42.978Z,82.30
2017-09-20T06:04:10.500Z,82.30
2017-09-20T06:06:38.007Z,82.10
2017-09-20T06:09:06.315Z,82.10
2017-09-20T06:11:33.815Z,82.10
2017-09-20T06:14:01.334Z,81.60
2017-09-20T06:16:28.833Z,81.00
2017-09-20T06:18:56.350Z,80.80
2017-09-20T06:21:23.850Z,80.60
2017-09-20T06:23:51.370Z,80.60
2017-09-20T06:26:18.869Z,80.50
2017-09-20T06:28:46.399Z,80.00
2017-09-20T06:31:13.890Z,79.30
2017-09-20T06:33:41.406Z,79.30
2017-09-20T06:36:08.895Z,78.70
2017-09-20T06:38:36.410Z,78.40
2017-09-20T06:41:03.906Z,77.80
2017-09-20T06:43:31.418Z,77.70
2017-09-20T06:45:58.911Z,77.10
2017-09-20T06:48:26.426Z,77.10
2017-09-20T06:50:53.927Z,76.50
2017-09-20T06:53:21.446Z,75.80
2017-09-20T06:55:48.945Z,76.10
2017-09-20T06:58:16.461Z,75.90
2017-09-20T07:00:44.726Z,74.90
2017-09-20T07:03:12.241Z,74.80
2017-09-20T07:05:39.730Z,73.40
2017-09-20T07:08:07.242Z,73.00
2017-09-20T07:10:34.766Z,72.70
2017-09-20T07:13:03.050Z,72.80
2017-09-20T07:15:30.546Z,72.70
2017-09-20T07:17:58.071Z,71.60
2017-09-20T07:20:26.331Z,70.90
2017-09-20T07:22:54.614Z,70.50
2017-09-20T07:25:22.878Z,70.30
2017-09-20T07:27:50.431Z,70.10
2017-09-20T07:30:17.930Z,70.10
2017-09-20T07:32:45.450Z,69.80
2017-09-20T07:35:12.941Z,69.40
2017-09-20T07:37:40.435Z,70.10
2017-09-20T07:40:07.954Z,70.50
2017-09-20T07:42:35.454Z,70.20
2017-09-20T07:45:02.990Z,69.50
2017-09-20T07:47:30.490Z,70.10
2017-09-20T07:49:58.010Z,70.80
2017-09-20T07:52:25.506Z,70.50
2017-09-20T07:54:53.019Z,70.10
2017-09-20T07:57:20.519Z,70.40
2017-09-20T07:59:48.035Z,70.70
2017-09-20T08:02:15.534Z,70.00
2017-09-20T08:04:43.026Z,69.80
2017-09-20T08:07:11.311Z,70.60
2017-09-20T08:09:39.571Z,70.30
2017-09-20T08:12:07.088Z,70.20
2017-09-20T08:14:34.582Z,70.40
2017-09-20T08:17:02.875Z,71.00
2017-09-20T08:19:30.370Z,70.60
2017-09-20T08:21:57.891Z,69.90
2017-09-20T08:24:26.154Z,69.70
2017-09-20T08:26:53.670Z,69.50
2017-09-20T08:29:21.162Z,68.30
2017-09-20T08:31:48.680Z,68.50
2017-09-20T08:34:16.174Z,66.70
2017-09-20T08:36:43.694Z,65.10
2017-09-20T08:39:11.187Z,64.50
2017-09-20T08:41:38.718Z,64.00
2017-09-20T08:44:06.214Z,64.20
2017-09-20T08:46:33.739Z,63.60
2017-09-20T08:49:01.234Z,62.80
2017-09-20T08:51:28.754Z,61.60
2017-09-20T08:53:56.254Z,62.10
2017-09-20T08:56:24.513Z,60.40
2017-09-20T08:58:52.035Z,60.40
2017-09-20T09:01:19.535Z,59.70
2017-09-20T09:03:47.054Z,58.10
2017-09-20T09:06:14.642Z,57.80
2017-09-20T09:08:42.158Z,57.70
2017-09-20T09:11:09.658Z,57.90
2017-09-20T09:13:37.180Z,58.50
2017-09-20T09:16:04.691Z,57.30
2017-09-20T09:18:32.216Z,57.60
2017-09-20T09:20:59.712Z,57.00
2017-09-20T09:23:27.998Z,58.00
2017-09-20T09:25:56.258Z,57.70
2017-09-20T09:28:23.774Z,57.70
2017-09-20T09:30:51.266Z,58.20
2017-09-20T09:33:18.819Z,57.70
2017-09-20T09:35:46.311Z,58.20
2017-09-20T09:38:14.591Z,56.40
2017-09-20T09:40:42.095Z,56.40
2017-09-20T09:43:09.619Z,57.20
2017-09-20T09:45:37.118Z,56.70
2017-09-20T09:48:04.638Z,56.50
2017-09-20T09:50:32.142Z,57.20
2017-09-20T09:52:59.662Z,56.70
2017-09-20T09:55:27.160Z,56.90
2017-09-20T09:57:54.683Z,56.60
2017-09-20T10:00:22.183Z,56.80
2017-09-20T10:02:49.706Z,56.70
2017-09-20T10:05:17.207Z,56.80
2017-09-20T10:07:44.735Z,57.70
2017-09-20T10:10:12.245Z,57.60
2017-09-20T10:12:39.798Z,57.90
2017-09-20T10:15:07.299Z,58.60
2017-09-20T10:17:34.823Z,59.10
2017-09-20T10:20:03.095Z,58.30
2017-09-20T10:22:31.374Z,58.50
2017-09-20T10:24:59.639Z,58.70
2017-09-20T10:27:27.154Z,58.60
2017-09-20T10:29:54.662Z,59.00
2017-09-20T10:32:22.953Z,59.00
2017-09-20T10:34:50.450Z,58.90
2017-09-20T10:37:17.975Z,59.10
2017-09-20T10:39:45.474Z,59.80
2017-09-20T10:42:12.998Z,60.50
2017-09-20T10:44:40.503Z,59.50
2017-09-20T10:47:08.032Z,59.30
2017-09-20T10:49:35.535Z,58.80
2017-09-20T10:52:03.055Z,58.80
2017-09-20T10:54:30.559Z,59.20
2017-09-20T10:56:58.074Z,59.80
2017-09-20T10:59:25.570Z,59.50
2017-09-20T11:01:53.119Z,59.50
2017-09-20T11:04:20.631Z,59.30
2017-09-20T11:06:48.157Z,59.50
2017-09-20T11:09:16.429Z,58.30
2017-09-20T11:11:43.951Z,58.20
2017-09-20T11:14:11.447Z,57.70
2017-09-20T11:16:38.950Z,57.60
2017-09-20T11:19:06.466Z,56.30
2017-09-20T11:21:34.743Z,54.30
2017-09-20T11:24:03.030Z,53.90
2017-09-20T11:26:31.319Z,52.60
2017-09-20T11:28:58.823Z,52.60
2017-09-20T11:31:26.339Z,53.00
2017-09-20T11:33:53.862Z,53.40
2017-09-20T11:36:21.363Z,53.10
2017-09-20T11:38:48.886Z,53.20
2017-09-20T11:41:17.159Z,48.70
2017-09-20T11:43:44.678Z,48.70
2017-09-20T11:46:12.174Z,46.10
2017-09-20T11:48:40.466Z,41.20
2017-09-20T11:51:08.730Z,41.10
2017-09-20T11:53:37.014Z,40.20
2017-09-20T11:56:05.274Z,39.90
2017-09-20T11:58:32.791Z,39.90
2017-09-20T12:01:00.291Z,40.50
2017-09-20T12:03:27.814Z,41.30
2017-09-20T12:05:55.306Z,43.50
2017-09-20T12:08:22.829Z,45.20
2017-09-20T12:10:50.326Z,46.30
2017-09-20T12:13:17.850Z,47.90
2017-09-20T12:15:45.354Z,48.60
2017-09-20T12:18:13.637Z,48.10
2017-09-20T12:20:41.898Z,48.80
2017-09-20T12:23:10.186Z,48.40
2017-09-20T12:25:38.451Z,49.70
2017-09-20T12:28:05.965Z,49.70
2017-09-20T12:30:33.465Z,51.00
2017-09-20T12:33:00.982Z,51.90
2017-09-20T12:35:28.473Z,51.80
2017-09-20T12:37:55.990Z,51.90
2017-09-20T12:40:23.492Z,52.70
2017-09-20T12:42:51.015Z,53.60
2017-09-20T12:45:18.511Z,53.60
2017-09-20T12:47:46.026Z,53.30
2017-09-20T12:50:13.526Z,55.00
2017-09-20T12:52:41.051Z,56.30
2017-09-20T12:55:08.551Z,56.50
2017-09-20T12:57:36.066Z,57.40
2017-09-20T13:00:03.562Z,58.50
2017-09-20T13:02:31.083Z,59.50
2017-09-20T13:04:58.583Z,59.30
2017-09-20T13:07:26.103Z,59.80
2017-09-20T13:09:53.599Z,59.30
2017-09-20T13:12:21.123Z,59.60
2017-09-20T13:14:49.395Z,58.50
2017-09-20T13:17:16.919Z,58.50
2017-09-20T13:19:44.430Z,59.00
2017-09-20T13:22:11.947Z,59.80
2017-09-20T13:24:39.459Z,58.10
2017-09-20T13:27:06.982Z,58.10
2017-09-20T13:29:34.480Z,58.00
2017-09-20T13:32:02.006Z,58.10
2017-09-20T13:34:29.511Z,56.90
2017-09-20T13:36:57.791Z,55.50
2017-09-20T13:39:26.065Z,55.60
2017-09-20T13:41:54.350Z,56.30
2017-09-20T13:44:22.610Z,56.40
2017-09-20T13:46:50.911Z,55.80
2017-09-20T13:49:18.411Z,55.80
2017-09-20T13:51:45.939Z,55.20
2017-09-20T13:54:13.435Z,55.30
2017-09-20T13:56:40.957Z,56.00
2017-09-20T13:59:08.454Z,54.70
2017-09-20T14:01:35.971Z,55.20
2017-09-20T14:04:03.475Z,55.50
2017-09-20T14:06:30.991Z,55.90
2017-09-20T14:08:58.486Z,55.60
2017-09-20T14:11:25.978Z,56.00
2017-09-20T14:13:54.355Z,56.50
2017-09-20T14:16:22.622Z,56.70
2017-09-20T14:18:50.146Z,56.60
2017-09-20T14:21:17.638Z,59.20
2017-09-20T14:23:45.154Z,60.00
2017-09-20T14:26:12.646Z,60.50
2017-09-20T14:28:40.167Z,60.20
2017-09-20T14:31:07.674Z,60.00
2017-09-20T14:33:35.186Z,59.40
2017-09-20T14:36:02.683Z,59.50
2017-09-20T14:38:30.198Z,59.50
2017-09-20T14:40:57.686Z,59.70
2017-09-20T14:43:25.198Z,60.00
2017-09-20T14:45:52.690Z,60.10
2017-09-20T14:48:20.202Z,60.40
2017-09-20T14:50:48.466Z,60.70
2017-09-20T14:53:16.754Z,61.00
2017-09-20T14:55:44.260Z,60.90
2017-09-20T14:58:11.778Z,61.60
2017-09-20T15:00:39.292Z,60.90
2017-09-20T15:03:06.835Z,60.70
2017-09-20T15:05:34.330Z,61.30
2017-09-20T15:08:02.618Z,61.70
2017-09-20T15:10:30.887Z,60.60
2017-09-20T15:12:59.171Z,60.90
2017-09-20T15:15:26.666Z,60.90
2017-09-20T15:17:54.178Z,61.50
2017-09-20T15:20:22.441Z,62.40
2017-09-20T15:22:49.965Z,62.30
2017-09-20T15:25:17.466Z,63.00
2017-09-20T15:27:44.986Z,63.00
2017-09-20T15:30:12.482Z,63.20
2017-09-20T15:32:40.763Z,62.30
2017-09-20T15:35:09.034Z,61.80
2017-09-20T15:37:37.331Z,62.30
2017-09-20T15:40:04.834Z,61.90
2017-09-20T15:42:32.350Z,62.00
2017-09-20T15:44:59.842Z,61.50
2017-09-20T15:47:27.364Z,61.10
2017-09-20T15:49:54.862Z,61.80
2017-09-20T15:52:22.395Z,61.60
2017-09-20T15:54:49.890Z,61.50
2017-09-20T15:57:17.411Z,61.00
2017-09-20T15:59:44.907Z,61.20
2017-09-20T16:02:12.427Z,61.20
2017-09-20T16:04:39.918Z,59.60
2017-09-20T16:07:07.439Z,59.70
2017-09-20T16:09:34.937Z,60.40
2017-09-20T16:12:02.451Z,60.80
2017-09-20T16:14:29.954Z,58.90
2017-09-20T16:16:57.476Z,59.60
2017-09-20T16:19:24.966Z,59.90
2017-09-20T16:21:52.486Z,59.00
2017-09-20T16:24:19.979Z,58.80
2017-09-20T16:26:47.496Z,58.90
2017-09-20T16:29:15.030Z,58.10
2017-09-20T16:31:42.550Z,58.40
2017-09-20T16:34:10.054Z,58.50
2017-09-20T16:36:38.338Z,59.20
2017-09-20T16:39:05.839Z,59.20
2017-09-20T16:41:34.142Z,59.90
2017-09-20T16:44:01.642Z,59.40
2017-09-20T16:46:29.142Z,59.80
2017-09-20T16:48:56.659Z,60.70
2017-09-20T16:51:24.159Z,60.60
2017-09-20T16:53:51.684Z,61.70
2017-09-20T16:56:19.190Z,60.80
2017-09-20T16:58:46.713Z,61.60
2017-09-20T17:01:14.214Z,62.40
2017-09-20T17:03:41.730Z,62.90
2017-09-20T17:06:09.242Z,64.10
2017-09-20T17:08:36.767Z,64.20
2017-09-20T17:11:04.267Z,64.50
2017-09-20T17:13:32.546Z,64.90
2017-09-20T17:16:00.805Z,65.20
2017-09-20T17:18:28.328Z,65.00
2017-09-20T17:20:55.830Z,65.00
2017-09-20T17:23:24.119Z,65.80
2017-09-20T17:25:52.382Z,63.90
2017-09-20T17:28:19.911Z,63.90
2017-09-20T17:30:47.410Z,65.00
2017-09-20T17:33:14.935Z,65.50
2017-09-20T17:35:42.439Z,66.20
2017-09-20T17:38:09.958Z,67.20
2017-09-20T17:40:37.458Z,67.90
2017-09-20T17:43:05.003Z,67.40
2017-09-20T17:45:33.266Z,67.30
2017-09-20T17:48:00.790Z,68.00
2017-09-20T17:50:29.054Z,67.90
2017-09-20T17:52:56.570Z,67.00
2017-09-20T17:55:24.066Z,67.90
2017-09-20T17:57:51.585Z,69.00
2017-09-20T18:00:19.086Z,69.50
2017-09-20T18:02:46.607Z,69.90
2017-09-20T18:05:14.110Z,70.20
2017-09-20T18:07:41.651Z,70.80
2017-09-20T18:10:09.147Z,71.20
2017-09-20T18:12:36.666Z,71.40
2017-09-20T18:15:04.163Z,71.60
2017-09-20T18:17:32.454Z,71.90
2017-09-20T18:19:59.954Z,71.90
2017-09-20T18:22:27.479Z,71.80
2017-09-20T18:24:54.974Z,71.80
2017-09-20T18:27:22.498Z,72.10
2017-09-20T18:29:49.998Z,72.20
2017-09-20T18:32:17.514Z,73.10
2017-09-20T18:34:45.010Z,73.30
2017-09-20T18:37:12.527Z,72.70
2017-09-20T18:39:40.027Z,73.20
2017-09-20T18:42:07.554Z,73.40
2017-09-20T18:44:35.047Z,73.60
2017-09-20T18:47:02.570Z,73.50
2017-09-20T18:49:30.081Z,73.50
2017-09-20T18:51:57.606Z,73.50
2017-09-20T18:54:25.867Z,73.90
2017-09-20T18:56:53.382Z,73.90
2017-09-20T18:59:21.645Z,74.10
2017-09-20T19:01:49.188Z,74.10
2017-09-20T19:04:16.687Z,74.20
2017-09-20T19:06:44.970Z,74.50
2017-09-20T19:09:12.466Z,74.40
2017-09-20T19:11:39.996Z,74.50
2017-09-20T19:14:07.499Z,74.70
2017-09-20T19:16:35.018Z,74.90
2017-09-20T19:19:02.519Z,75.30
2017-09-20T19:21:30.030Z,75.70
2017-09-20T19:23:57.531Z,76.10
2017-09-20T19:26:25.055Z,76.60
2017-09-20T19:28:52.558Z,76.90
2017-09-20T19:31:20.083Z,77.30
2017-09-20T19:33:47.585Z,77.50
2017-09-20T19:36:15.105Z,77.60
2017-09-20T19:38:42.603Z,78.00
2017-09-20T19:41:10.887Z,79.30
2017-09-20T19:43:39.166Z,78.30
2017-09-20T19:46:07.450Z,78.30
2017-09-20T19:48:35.718Z,78.10
2017-09-20T19:51:04.006Z,78.10
2017-09-20T19:53:31.511Z,78.00
2017-09-20T19:55:59.043Z,78.20
2017-09-20T19:58:26.543Z,78.60
2017-09-20T20:00:54.058Z,78.60
2017-09-20T20:03:21.559Z,79.10
2017-09-20T20:05:49.054Z,79.20
2017-09-20T20:08:17.339Z,80.50
2017-09-20T20:10:44.846Z,80.50
2017-09-20T20:13:12.368Z,80.20
2017-09-20T20:15:39.926Z,80.20
2017-09-20T20:18:08.204Z,80.20
2017-09-20T20:20:35.707Z,80.10
2017-09-20T20:23:03.227Z,79.70
2017-09-20T20:25:30.718Z,79.20
2017-09-20T20:27:58.235Z,78.40
2017-09-20T20:30:25.735Z,78.40
2017-09-20T20:32:53.274Z,77.90
2017-09-20T20:35:20.778Z,78.10
2017-09-20T20:37:48.308Z,78.00
2017-09-20T20:40:15.803Z,78.10
2017-09-20T20:42:44.091Z,78.30
2017-09-20T20:45:11.603Z,78.10
2017-09-20T20:47:39.119Z,78.30
2017-09-20T20:50:06.614Z,78.30
2017-09-20T20:52:34.135Z,78.40
2017-09-20T20:55:01.635Z,78.20
2017-09-20T20:57:29.132Z,78.30
2017-09-20T20:59:57.418Z,78.10
2017-09-20T21:02:24.910Z,78.00
2017-09-20T21:04:52.447Z,78.00
2017-09-20T21:07:19.949Z,78.00
2017-09-20T21:09:47.451Z,77.80
2017-09-20T21:12:14.966Z,77.60
2017-09-20T21:14:42.458Z,77.60
2017-09-20T21:17:10.724Z,77.40
2017-09-20T21:19:38.246Z,77.30
2017-09-20T21:22:05.747Z,77.40
2017-09-20T21:24:34.006Z,78.10
2017-09-20T21:27:01.547Z,78.10
2017-09-20T21:29:29.042Z,78.30
2017-09-20T21:31:57.306Z,78.20
2017-09-20T21:34:25.590Z,78.00
2017-09-20T21:36:53.855Z,78.10
2017-09-20T21:39:22.122Z,78.50
2017-09-20T21:41:49.650Z,78.10
2017-09-20T21:44:17.142Z,77.90
2017-09-20T21:46:44.634Z,78.10
2017-09-20T21:49:12.146Z,78.00
2017-09-20T21:51:39.642Z,78.10
2017-09-20T21:54:07.935Z,78.40
2017-09-20T21:56:35.429Z,78.40
2017-09-20T21:59:02.921Z,78.70
2017-09-20T22:01:31.201Z,79.30
2017-09-20T22:03:59.466Z,79.40
2017-09-20T22:06:27.728Z,79.10
2017-09-20T22:08:55.246Z,79.10
2017-09-20T22:11:22.739Z,79.00
2017-09-20T22:13:50.238Z,79.00
2017-09-20T22:16:30.430Z,79.10
2017-09-20T22:19:09.977Z,79.10
2017-09-20T22:21:49.439Z,78.90
2017-09-20T22:24:28.790Z,79.40
2017-09-20T22:26:56.576Z,79.00
2017-09-20T22:29:24.074Z,78.90
2017-09-20T22:31:51.587Z,78.60
2017-09-20T22:34:19.887Z,78.20
2017-09-20T22:36:47.385Z,78.20
2017-09-20T22:39:14.902Z,78.30
2017-09-20T22:41:42.399Z,78.60
2017-09-20T22:44:09.893Z,79.00
2017-09-20T22:46:37.418Z,79.10
2017-09-20T22:49:04.910Z,78.90
2017-09-20T22:51:33.198Z,78.40
2017-09-20T22:54:00.698Z,78.30
2017-09-20T22:56:28.202Z,78.40
2017-09-20T22:58:56.481Z,78.60
2017-09-20T23:01:24.741Z,78.50
2017-09-20T23:03:52.235Z,78.50
2017-09-20T23:06:19.758Z,78.60
2017-09-20T23:08:48.030Z,78.50
2017-09-20T23:11:15.531Z,78.40
2017-09-20T23:13:43.050Z,78.50
2017-09-20T23:16:11.314Z,78.50
2017-09-20T23:18:40.320Z,78.60
2017-09-20T23:21:07.838Z,78.60
2017-09-20T23:23:35.354Z,78.80
2017-09-20T23:26:03.622Z,78.80
2017-09-20T23:28:31.879Z,78.80
2017-09-20T23:30:59.398Z,78.80
2017-09-20T23:33:26.898Z,78.80
2017-09-20T23:35:54.390Z,78.80
2017-09-20T23:38:21.906Z,78.70
2017-09-20T23:40:49.406Z,78.70
2017-09-20T23:43:16.898Z,78.90
2017-09-20T23:45:44.418Z,78.70
2017-09-20T23:48:12.694Z,79.90
2017-09-20T23:50:40.186Z,79.80
2017-09-20T23:53:07.674Z,79.80
2017-09-20T23:55:35.187Z,79.80
2017-09-20T23:58:02.681Z,79.80
